Time;durP1;ratioP1;P1;durP2;ratioP2;P2;SDS_P1;SDS_P2;PMS_P1;PMS_P2;Temp;Humidity;BMP_temperature;BMP_pressure;BME280_temperature;BME280_humidity;BME280_pressure;Samples;Min_cycle;Max_cycle;Signal;HPM_P1;HPM_P2
2021/09/03 00:01:02;;;;;;;58.17;24.08;;;;;;;21.90;59.62;102557.09;5072893;28;20364;-69
2021/09/03 00:03:28;;;;;;;58.05;24.63;;;;;;;21.90;59.12;102559.78;5073834;28;20036;-69
2021/09/03 00:05:53;;;;;;;54.25;23.85;;;;;;;21.92;59.45;102564.94;5072340;28;20048;-69
2021/09/03 00:08:19;;;;;;;55.55;24.65;;;;;;;21.91;59.28;102563.28;5091684;28;20372;-69
2021/09/03 00:10:44;;;;;;;54.80;24.02;;;;;;;21.89;59.54;102558.13;5056647;28;20520;-69
2021/09/03 00:13:10;;;;;;;54.50;23.45;;;;;;;21.90;59.23;102551.75;5090856;28;20043;-68
2021/09/03 00:15:35;;;;;;;51.85;23.45;;;;;;;21.91;59.22;102555.28;5072509;28;20131;-68
2021/09/03 00:18:02;;;;;;;51.78;23.23;;;;;;;21.91;59.49;102561.44;5091308;28;20077;-69
2021/09/03 00:20:29;;;;;;;55.00;23.23;;;;;;;21.91;59.45;102555.28;5065705;28;20040;-69
2021/09/03 00:22:54;;;;;;;56.13;23.98;;;;;;;21.90;59.45;102553.59;5090921;28;20028;-68
2021/09/03 00:25:20;;;;;;;54.13;23.42;;;;;;;21.90;59.55;102551.75;5073467;28;20043;-69
2021/09/03 00:27:45;;;;;;;56.67;24.05;;;;;;;21.90;59.38;102554.44;5089969;28;20509;-69
2021/09/03 00:30:12;;;;;;;53.10;23.55;;;;;;;21.91;59.75;102549.94;5091501;28;20045;-69
2021/09/03 00:32:38;;;;;;;50.20;23.65;;;;;;;21.91;59.61;102544.59;5072942;28;20035;-69
2021/09/03 00:35:04;;;;;;;51.97;23.25;;;;;;;21.90;59.58;102543.75;5091217;28;20032;-69
2021/09/03 00:37:30;;;;;;;55.13;23.85;;;;;;;21.90;59.25;102540.25;5072268;28;20546;-69
2021/09/03 00:39:55;;;;;;;54.05;24.10;;;;;;;21.90;59.28;102537.56;5080338;28;20147;-69
2021/09/03 00:42:21;;;;;;;49.55;22.52;;;;;;;21.90;59.47;102535.72;5070509;28;20381;-69
2021/09/03 00:44:46;;;;;;;49.25;22.95;;;;;;;21.90;59.30;102532.22;5070316;28;20033;-69
2021/09/03 00:47:12;;;;;;;52.25;22.73;;;;;;;21.90;59.64;102534.91;5053090;28;20569;-69
2021/09/03 00:49:37;;;;;;;49.72;22.30;;;;;;;21.90;59.71;102529.56;5071508;28;20047;-69
2021/09/03 00:52:05;;;;;;;51.95;22.77;;;;;;;21.90;59.22;102526.88;5045632;28;20033;-69
2021/09/03 00:54:31;;;;;;;50.25;22.63;;;;;;;21.90;59.47;102527.72;5069796;28;20825;-68
2021/09/03 00:56:57;;;;;;;45.03;21.40;;;;;;;21.90;59.28;102526.88;5069928;28;20064;-68
2021/09/03 00:59:22;;;;;;;51.00;22.30;;;;;;;21.89;59.68;102523.38;5069657;28;20468;-69
2021/09/03 01:01:48;;;;;;;49.08;22.33;;;;;;;21.90;59.54;102517.03;5069590;28;20032;-68
2021/09/03 01:04:13;;;;;;;48.63;22.42;;;;;;;21.89;59.27;102518.03;5069626;28;20033;-69
2021/09/03 01:06:39;;;;;;;48.88;23.15;;;;;;;21.90;59.46;102521.53;5065369;28;20082;-68
2021/09/03 01:09:04;;;;;;;47.33;21.50;;;;;;;21.90;59.62;102518.88;5070034;28;20029;-69
2021/09/03 01:11:30;;;;;;;46.42;21.38;;;;;;;21.89;59.23;102510.03;5063216;28;20025;-68
2021/09/03 01:13:55;;;;;;;47.63;22.13;;;;;;;21.90;59.37;102508.19;5069094;28;20454;-69
2021/09/03 01:16:21;;;;;;;46.00;21.33;;;;;;;21.89;59.61;102507.34;5069442;28;20067;-69
2021/09/03 01:18:46;;;;;;;50.42;21.60;;;;;;;21.89;59.35;102499.34;5069987;28;20366;-69
2021/09/03 01:21:12;;;;;;;47.15;20.80;;;;;;;21.89;59.39;102503.84;5069600;28;20040;-69
2021/09/03 01:23:37;;;;;;;47.45;21.58;;;;;;;21.89;59.60;102494.00;5059756;28;20043;-69
2021/09/03 01:26:06;;;;;;;49.05;21.70;;;;;;;21.88;59.61;102503.00;5052136;28;20448;-69
2021/09/03 01:28:32;;;;;;;45.42;20.58;;;;;;;21.90;59.59;102490.31;5069295;28;20039;-69
2021/09/03 01:30:58;;;;;;;47.95;20.67;;;;;;;21.90;59.66;102492.16;5069593;28;20036;-69
2021/09/03 01:33:24;;;;;;;45.60;21.08;;;;;;;21.90;59.72;102492.16;5068999;28;20503;-68
2021/09/03 01:35:50;;;;;;;42.35;20.27;;;;;;;21.89;59.72;102488.66;5051309;28;20033;-69
2021/09/03 01:38:16;;;;;;;44.78;21.08;;;;;;;21.89;59.45;102480.63;5069867;28;20044;-69
2021/09/03 01:40:42;;;;;;;44.25;21.73;;;;;;;21.89;59.48;102485.97;5085192;28;20063;-69
2021/09/03 01:43:07;;;;;;;42.72;18.38;;;;;;;21.89;59.48;102483.31;5089579;28;20028;-68
2021/09/03 01:45:33;;;;;;;42.53;20.02;;;;;;;21.89;59.76;102480.63;5088914;28;20044;-69
2021/09/03 01:47:58;;;;;;;41.30;20.48;;;;;;;21.89;59.29;102487.81;5071812;28;20031;-69
2021/09/03 01:50:23;;;;;;;43.88;20.17;;;;;;;21.90;59.56;102484.13;5089378;28;20516;-69
2021/09/03 01:52:49;;;;;;;40.97;19.15;;;;;;;21.89;59.70;102475.28;5071153;28;20501;-69
2021/09/03 01:55:14;;;;;;;44.83;19.73;;;;;;;21.88;59.21;102470.94;5089443;28;20028;-69
2021/09/03 01:57:40;;;;;;;39.35;19.88;;;;;;;21.89;59.61;102469.94;5087882;28;20032;-69
2021/09/03 02:00:06;;;;;;;43.33;20.85;;;;;;;21.89;59.45;102467.28;5089144;28;20131;-69
2021/09/03 02:02:32;;;;;;;41.83;19.83;;;;;;;21.88;59.20;102462.94;5070886;28;20047;-69
2021/09/03 02:04:57;;;;;;;43.28;18.90;;;;;;;21.89;59.39;102461.94;5089636;28;20084;-69
2021/09/03 02:07:23;;;;;;;41.50;18.98;;;;;;;21.88;59.39;102462.94;5088382;28;20040;-69
2021/09/03 02:09:48;;;;;;;40.10;19.27;;;;;;;21.89;59.39;102459.25;5088056;28;20039;-69
2021/09/03 02:12:14;;;;;;;40.67;18.60;;;;;;;21.89;59.36;102463.78;5088928;28;20039;-69
2021/09/03 02:14:44;;;;;;;37.65;18.13;;;;;;;21.87;59.18;102466.63;5070873;28;20442;-69
2021/09/03 02:17:09;;;;;;;41.15;19.33;;;;;;;21.88;59.14;102462.94;5063102;28;20039;-69
2021/09/03 02:19:35;;;;;;;38.42;18.02;;;;;;;21.88;59.50;102454.09;5089127;28;20036;-69
2021/09/03 02:22:01;;;;;;;44.00;18.90;;;;;;;21.88;59.00;102452.25;5088934;28;20039;-68
2021/09/03 02:24:26;;;;;;;41.22;19.48;;;;;;;21.87;59.49;102442.56;5070907;28;20032;-69
2021/09/03 02:26:52;;;;;;;38.50;18.13;;;;;;;21.88;59.29;102443.41;5087920;28;20032;-69
2021/09/03 02:29:17;;;;;;;38.00;17.85;;;;;;;21.87;59.47;102442.56;5071410;28;20032;-69
2021/09/03 02:31:43;;;;;;;40.85;18.92;;;;;;;21.88;59.25;102441.56;5088554;28;20101;-69
2021/09/03 02:34:08;;;;;;;37.00;17.25;;;;;;;21.88;59.32;102435.38;5089116;28;20365;-68
2021/09/03 02:36:34;;;;;;;36.58;17.52;;;;;;;21.88;59.20;102436.22;5069883;28;20039;-69
2021/09/03 02:38:59;;;;;;;36.47;17.38;;;;;;;21.87;59.42;102431.88;5088377;28;20036;-69
2021/09/03 02:41:25;;;;;;;38.10;16.40;;;;;;;21.88;59.31;102430.03;5089125;28;20059;-69
2021/09/03 02:43:50;;;;;;;40.38;18.58;;;;;;;21.89;59.17;102429.03;5088641;28;20425;-69
2021/09/03 02:46:16;;;;;;;37.28;17.17;;;;;;;21.87;59.25;102425.72;5070938;28;20035;-69
2021/09/03 02:48:41;;;;;;;36.17;16.85;;;;;;;21.88;59.32;102422.03;5083558;28;20097;-69
2021/09/03 02:51:07;;;;;;;38.15;17.23;;;;;;;21.88;59.38;102422.03;5069405;28;20036;-69
2021/09/03 02:53:32;;;;;;;30.70;16.05;;;;;;;21.88;59.60;102416.69;5070425;28;20553;-69
2021/09/03 02:55:58;;;;;;;40.67;17.10;;;;;;;21.87;59.27;102420.38;5070627;28;20038;-69
2021/09/03 02:58:23;;;;;;;35.30;16.55;;;;;;;21.88;59.46;102416.69;5088587;28;20444;-69
2021/09/03 03:00:49;;;;;;;33.15;16.33;;;;;;;21.87;59.73;102415.84;5086443;28;20127;-69
2021/09/03 03:03:14;;;;;;;34.03;17.25;;;;;;;21.87;59.34;102407.84;5089115;28;20090;-69
2021/09/03 03:05:39;;;;;;;32.92;16.40;;;;;;;21.87;59.51;102405.16;5088095;28;20040;-69
2021/09/03 03:08:05;;;;;;;35.90;16.02;;;;;;;21.87;59.55;102402.50;5053758;28;20044;-69
2021/09/03 03:10:31;;;;;;;34.92;16.50;;;;;;;21.87;59.53;102399.00;5088747;28;20200;-69
2021/09/03 03:12:58;;;;;;;35.10;16.00;;;;;;;21.87;59.42;102404.34;5087928;28;20070;-69
2021/09/03 03:15:24;;;;;;;33.83;15.85;;;;;;;21.86;59.59;102403.50;5083054;28;20068;-69
2021/09/03 03:17:50;;;;;;;30.38;16.17;;;;;;;21.87;59.67;102399.81;5070015;28;20055;-69
2021/09/03 03:20:16;;;;;;;30.73;15.30;;;;;;;21.87;59.62;102397.16;5088757;28;20034;-69
2021/09/03 03:22:45;;;;;;;31.80;16.33;;;;;;;21.87;59.37;102399.00;5090903;28;20039;-69
2021/09/03 03:25:12;;;;;;;35.55;17.00;;;;;;;21.87;59.34;102397.16;5078646;28;20035;-69
2021/09/03 03:27:37;;;;;;;30.83;15.35;;;;;;;21.87;59.49;102397.16;5091609;28;20044;-69
2021/09/03 03:30:04;;;;;;;32.78;14.52;;;;;;;21.87;59.50;102389.13;5073778;28;20040;-69
2021/09/03 03:32:29;;;;;;;33.72;15.45;;;;;;;21.87;59.10;102393.66;5092098;28;20483;-69
2021/09/03 03:34:55;;;;;;;24.73;13.38;;;;;;;21.87;59.55;102393.66;5082543;28;20070;-68
2021/09/03 03:37:20;;;;;;;30.45;15.30;;;;;;;21.87;59.32;102390.97;5061926;28;20064;-69
2021/09/03 03:39:45;;;;;;;28.60;13.77;;;;;;;21.86;59.55;102387.47;5091379;28;20052;-69
2021/09/03 03:42:11;;;;;;;28.35;14.93;;;;;;;21.86;59.19;102387.47;5092031;28;20421;-69
2021/09/03 03:44:37;;;;;;;29.23;13.68;;;;;;;21.87;59.50;102386.47;5082696;28;20063;-69
2021/09/03 03:47:02;;;;;;;26.30;14.07;;;;;;;21.86;59.27;102384.81;5089687;28;20036;-69
2021/09/03 03:49:28;;;;;;;31.70;14.65;;;;;;;21.87;59.25;102380.28;5091862;28;20036;-69
2021/09/03 03:51:53;;;;;;;26.30;14.43;;;;;;;21.86;59.03;102375.97;5086192;28;20032;-69
2021/09/03 03:54:19;;;;;;;29.85;14.20;;;;;;;21.86;59.29;102375.97;5085861;28;20036;-69
2021/09/03 03:56:44;;;;;;;25.90;13.32;;;;;;;21.87;59.43;102372.28;5069418;28;20533;-69
2021/09/03 03:59:10;;;;;;;26.95;13.57;;;;;;;21.87;59.15;102366.94;5092169;28;20032;-69
2021/09/03 04:01:35;;;;;;;26.08;13.52;;;;;;;21.86;59.24;102357.25;5090254;28;20500;-69
2021/09/03 04:04:01;;;;;;;26.45;13.45;;;;;;;21.86;59.18;102360.75;5073709;28;20571;-69
2021/09/03 04:06:27;;;;;;;26.30;12.15;;;;;;;21.86;59.13;102365.28;5091089;28;20123;-69
2021/09/03 04:08:52;;;;;;;25.27;13.15;;;;;;;21.86;59.44;102359.94;5091490;28;20134;-69
2021/09/03 04:11:18;;;;;;;25.65;12.82;;;;;;;21.85;59.14;102361.78;5073613;28;20036;-69
2021/09/03 04:13:43;;;;;;;25.85;13.82;;;;;;;21.86;59.18;102354.59;5071772;28;20040;-69
2021/09/03 04:16:09;;;;;;;26.42;12.52;;;;;;;21.85;59.30;102348.41;5091327;28;20036;-69
2021/09/03 04:18:34;;;;;;;25.65;13.10;;;;;;;21.86;59.24;102357.25;5073334;28;20043;-69
2021/09/03 04:21:00;;;;;;;22.90;12.18;;;;;;;21.85;59.64;102345.75;5086956;28;20051;-69
2021/09/03 04:23:26;;;;;;;24.77;12.82;;;;;;;21.84;59.18;102354.75;5076423;28;20036;-68
2021/09/03 04:25:51;;;;;;;27.73;12.98;;;;;;;21.86;59.34;102349.25;5073099;28;20456;-69
2021/09/03 04:28:17;;;;;;;25.50;12.45;;;;;;;21.85;59.65;102351.09;5091611;28;20058;-69
2021/09/03 04:30:42;;;;;;;25.45;11.90;;;;;;;21.85;59.24;102343.06;5091304;28;20028;-69
2021/09/03 04:33:08;;;;;;;22.55;12.25;;;;;;;21.85;59.60;102344.91;5072550;28;20391;-69
2021/09/03 04:35:33;;;;;;;21.52;12.02;;;;;;;21.85;59.34;102342.25;5072910;28;20487;-69
2021/09/03 04:37:59;;;;;;;22.73;12.63;;;;;;;21.84;59.44;102344.06;5091078;28;20240;-69
2021/09/03 04:40:24;;;;;;;23.38;11.93;;;;;;;21.84;59.53;102344.06;5055826;28;20416;-69
2021/09/03 04:42:50;;;;;;;24.85;12.70;;;;;;;21.85;59.45;102342.25;5071878;28;20044;-69
2021/09/03 04:45:16;;;;;;;24.88;13.10;;;;;;;21.84;59.48;102341.41;5090112;28;20024;-69
2021/09/03 04:47:42;;;;;;;22.92;12.05;;;;;;;21.83;59.58;102337.91;5090888;28;20036;-69
2021/09/03 04:50:10;;;;;;;23.80;11.88;;;;;;;21.84;59.22;102338.72;5086398;28;20081;-69
2021/09/03 04:52:36;;;;;;;23.10;11.32;;;;;;;21.83;59.27;102332.56;5090440;28;20113;-69
2021/09/03 04:55:02;;;;;;;21.08;10.73;;;;;;;21.84;59.44;102325.38;5090805;28;20070;-69
2021/09/03 04:57:28;;;;;;;20.02;11.15;;;;;;;21.83;59.56;102337.91;5089731;28;20036;-69
2021/09/03 04:59:53;;;;;;;22.15;10.13;;;;;;;21.83;59.42;102321.88;5089972;28;20556;-69
2021/09/03 05:02:19;;;;;;;21.40;10.80;;;;;;;21.84;59.34;102322.69;5055683;28;20070;-68
2021/09/03 05:04:45;;;;;;;21.40;11.65;;;;;;;21.84;59.25;102322.69;5090116;28;20024;-69
2021/09/03 05:07:10;;;;;;;19.45;10.80;;;;;;;21.83;59.36;102323.72;5090122;28;20040;-69
2021/09/03 05:09:36;;;;;;;19.15;10.18;;;;;;;21.83;59.17;102321.03;5089575;28;20032;-69
2021/09/03 05:12:02;;;;;;;20.13;10.70;;;;;;;21.82;59.29;102322.88;5090102;28;20077;-69
2021/09/03 05:14:28;;;;;;;20.60;11.27;;;;;;;21.83;59.10;102321.03;5055891;28;20061;-69
2021/09/03 05:16:53;;;;;;;19.35;10.23;;;;;;;21.82;59.27;102328.22;5071492;28;20161;-69
2021/09/03 05:19:19;;;;;;;19.20;9.85;;;;;;;21.83;59.30;102329.06;5072357;28;20391;-69
2021/09/03 05:21:44;;;;;;;20.00;10.32;;;;;;;21.83;59.53;102323.72;5070239;28;20383;-69
2021/09/03 05:24:10;;;;;;;21.48;10.73;;;;;;;21.83;59.37;102321.03;5090251;28;20043;-69
2021/09/03 05:26:35;;;;;;;19.30;10.45;;;;;;;21.82;59.07;102317.53;5089666;28;20105;-70
2021/09/03 05:29:01;;;;;;;18.98;9.80;;;;;;;21.83;59.35;102323.72;5090358;28;20040;-69
2021/09/03 05:31:26;;;;;;;19.65;10.43;;;;;;;21.83;59.37;102318.38;5065964;28;20441;-69
2021/09/03 05:33:51;;;;;;;18.30;10.05;;;;;;;21.83;59.36;102318.38;5089151;28;20036;-67
2021/09/03 05:36:17;;;;;;;19.00;10.88;;;;;;;21.82;59.35;102311.38;5086907;28;20031;-72
2021/09/03 05:38:42;;;;;;;17.05;9.57;;;;;;;21.81;59.24;102310.53;5089364;28;20028;-72
2021/09/03 05:41:08;;;;;;;17.98;9.65;;;;;;;21.82;59.63;102308.69;5054608;28;20426;-71
2021/09/03 05:43:33;;;;;;;16.60;9.32;;;;;;;21.82;59.45;102311.38;5087767;28;20040;-70
2021/09/03 05:45:59;;;;;;;19.40;10.38;;;;;;;21.82;59.77;102312.19;5065401;28;20130;-67
2021/09/03 05:48:24;;;;;;;16.17;9.32;;;;;;;21.82;59.47;102316.72;5071517;28;20031;-67
2021/09/03 05:50:50;;;;;;;18.35;9.20;;;;;;;21.82;59.41;102312.19;5088271;28;20051;-67
2021/09/03 05:53:16;;;;;;;17.70;9.88;;;;;;;21.83;59.69;102315.69;5089268;28;20040;-67
2021/09/03 05:55:41;;;;;;;14.10;8.55;;;;;;;21.83;59.85;102318.38;5088764;28;20043;-67
2021/09/03 05:58:07;;;;;;;17.13;9.43;;;;;;;21.82;59.92;102312.19;5067160;28;20032;-67
2021/09/03 06:00:32;;;;;;;17.17;9.45;;;;;;;21.83;59.61;102315.69;5077293;28;20052;-67
2021/09/03 06:02:58;;;;;;;17.38;9.48;;;;;;;21.82;59.88;102312.19;5085909;28;20042;-67
2021/09/03 06:05:24;;;;;;;17.85;9.25;;;;;;;21.82;59.54;102316.72;5086211;28;20085;-67
2021/09/03 06:07:50;;;;;;;16.15;8.98;;;;;;;21.83;59.57;102313.03;5038528;28;20076;-67
2021/09/03 06:10:15;;;;;;;16.20;9.60;;;;;;;21.82;59.73;102312.19;5086332;28;20028;-67
2021/09/03 06:12:41;;;;;;;17.92;9.57;;;;;;;21.82;59.78;102306.03;5050221;28;20039;-67
2021/09/03 06:15:08;;;;;;;15.40;8.20;;;;;;;21.83;59.47;102305.00;5085947;28;20031;-67
2021/09/03 06:17:35;;;;;;;17.27;9.10;;;;;;;21.83;59.68;102315.69;5085928;28;20065;-67
2021/09/03 06:20:00;;;;;;;17.75;9.32;;;;;;;21.83;59.85;102315.69;5084911;28;20059;-66
2021/09/03 06:22:26;;;;;;;16.25;8.55;;;;;;;21.82;59.51;102312.19;5067145;28;20114;-67
2021/09/03 06:24:51;;;;;;;15.63;8.25;;;;;;;21.83;59.80;102319.19;5085192;28;20035;-67
2021/09/03 06:27:17;;;;;;;14.73;8.43;;;;;;;21.83;59.98;102321.88;5067385;28;20040;-67
2021/09/03 06:29:42;;;;;;;16.10;8.23;;;;;;;21.84;59.57;102322.69;5085467;28;20086;-67
2021/09/03 06:32:16;;;;;;;14.27;8.27;;;;;;;21.81;59.59;102315.88;5084999;28;20036;-67
2021/09/03 06:34:48;;;;;;;16.10;8.30;;;;;;;21.83;59.89;102318.38;5085539;28;20547;-67
2021/09/03 06:37:14;;;;;;;16.70;8.60;;;;;;;21.82;59.92;102322.06;5081538;28;20134;-67
2021/09/03 06:39:39;;;;;;;15.50;8.32;;;;;;;21.83;59.49;102321.88;5085964;28;20357;-67
2021/09/03 06:42:06;;;;;;;16.63;8.30;;;;;;;21.82;59.94;102317.53;5085377;28;20502;-67
2021/09/03 06:44:32;;;;;;;15.45;8.23;;;;;;;21.83;59.60;102319.19;5067981;28;20028;-67
2021/09/03 06:46:58;;;;;;;14.75;7.82;;;;;;;21.83;59.91;102313.03;5070121;28;20124;-67
2021/09/03 06:49:24;;;;;;;13.93;7.82;;;;;;;21.83;59.96;102319.19;5070705;28;20155;-67
2021/09/03 06:51:49;;;;;;;12.88;7.05;;;;;;;21.83;59.97;102319.19;5087714;28;20043;-67
2021/09/03 06:54:15;;;;;;;12.48;7.13;;;;;;;21.84;60.25;102328.03;5070688;28;20028;-66
2021/09/03 06:56:41;;;;;;;19.13;8.52;;;;;;;21.83;60.09;102318.38;5090301;28;20028;-67
2021/09/03 06:59:06;;;;;;;17.92;7.32;;;;;;;21.83;60.59;102313.03;5105307;28;20027;-67
2021/09/03 07:01:32;;;;;;;17.90;8.45;;;;;;;21.83;60.84;102313.03;5086469;28;20379;-68
2021/09/03 07:03:57;;;;;;;17.30;7.93;;;;;;;21.84;61.08;102314.69;5086709;28;20395;-68
2021/09/03 07:06:24;;;;;;;18.50;8.65;;;;;;;21.85;61.80;102316.34;5074399;28;20397;-68
2021/09/03 07:08:49;;;;;;;17.40;8.68;;;;;;;21.86;62.07;102317.19;5074430;28;20483;-68
2021/09/03 07:11:15;;;;;;;17.73;7.60;;;;;;;21.87;62.42;102318.84;5092008;28;20043;-68
2021/09/03 07:13:41;;;;;;;16.30;8.32;;;;;;;21.88;62.83;102312.50;5076638;28;20028;-68
2021/09/03 07:16:06;;;;;;;16.48;8.43;;;;;;;21.89;63.18;102312.31;5085052;28;20733;-68
2021/09/03 07:18:32;;;;;;;17.60;9.27;;;;;;;21.89;63.65;102312.31;5064174;28;20027;-68
2021/09/03 07:20:57;;;;;;;14.95;8.35;;;;;;;21.91;63.97;102306.78;5091737;28;20455;-69
2021/09/03 07:23:23;;;;;;;14.20;8.07;;;;;;;21.92;64.79;102313.81;5092131;28;20040;-68
2021/09/03 07:25:49;;;;;;;16.70;9.07;;;;;;;21.92;64.29;102314.63;5091969;28;20359;-70
2021/09/03 07:28:14;;;;;;;15.45;7.47;;;;;;;21.93;64.50;102307.44;5078028;28;20043;-72
2021/09/03 07:30:40;;;;;;;13.77;7.75;;;;;;;21.93;64.60;102310.94;5086507;28;20055;-72
2021/09/03 07:33:05;;;;;;;16.50;7.78;;;;;;;21.93;64.45;102310.13;5092299;28;20183;-70
2021/09/03 07:35:31;;;;;;;14.88;7.82;;;;;;;21.92;64.35;102311.97;5075370;28;20032;-69
2021/09/03 07:37:56;;;;;;;19.05;8.05;;;;;;;21.91;64.73;102318.31;5091394;28;20051;-69
2021/09/03 07:40:22;;;;;;;20.90;8.68;;;;;;;21.92;64.39;102311.97;5074522;28;20101;-66
2021/09/03 07:42:48;;;;;;;22.38;8.93;;;;;;;21.91;64.77;102307.63;5067094;28;20491;-68
2021/09/03 07:45:14;;;;;;;18.95;8.23;;;;;;;21.91;64.41;102307.63;5081412;28;20519;-68
2021/09/03 07:47:39;;;;;;;22.52;9.23;;;;;;;21.91;64.75;102306.78;5082887;28;20442;-68
2021/09/03 07:50:06;;;;;;;22.30;8.30;;;;;;;21.90;64.30;102313.16;5083592;28;20115;-69
2021/09/03 07:52:31;;;;;;;23.83;8.43;;;;;;;21.91;64.40;102315.63;5061926;28;20032;-70
2021/09/03 07:54:57;;;;;;;16.80;7.97;;;;;;;21.89;64.18;102309.66;5089809;28;20381;-70
2021/09/03 07:57:22;;;;;;;19.52;8.88;;;;;;;21.89;64.35;102317.66;5071132;28;20032;-70
2021/09/03 07:59:48;;;;;;;20.45;8.50;;;;;;;21.88;63.76;102305.31;5090659;28;20380;-70
2021/09/03 08:02:13;;;;;;;19.80;9.02;;;;;;;21.87;63.35;102310.84;5086012;28;20032;-70
2021/09/03 08:04:39;;;;;;;21.05;8.70;;;;;;;21.87;63.58;102309.00;5052664;28;20033;-70
2021/09/03 08:07:04;;;;;;;19.23;7.82;;;;;;;21.87;63.49;102314.34;5069926;28;20043;-70
2021/09/03 08:09:29;;;;;;;15.68;7.50;;;;;;;21.86;63.01;102309.16;5070999;28;20062;-70
2021/09/03 08:11:55;;;;;;;18.98;8.27;;;;;;;21.86;62.99;102309.16;5070669;28;20096;-70
2021/09/03 08:14:20;;;;;;;16.50;7.07;;;;;;;21.85;62.36;102310.19;5071976;28;20032;-69
2021/09/03 08:16:46;;;;;;;16.55;7.40;;;;;;;21.82;62.23;102311.38;5036165;28;20132;-70
2021/09/03 08:19:11;;;;;;;15.10;7.68;;;;;;;21.81;61.91;102313.22;5053841;28;20066;-70
2021/09/03 08:21:37;;;;;;;16.05;7.53;;;;;;;21.80;61.62;102308.03;5052436;28;20048;-70
2021/09/03 08:24:03;;;;;;;16.75;7.63;;;;;;;21.79;61.17;102311.72;5053223;28;20223;-70
2021/09/03 08:26:29;;;;;;;16.42;7.28;;;;;;;21.78;60.71;102313.56;5070953;28;20028;-70
2021/09/03 08:28:55;;;;;;;14.90;7.70;;;;;;;21.76;60.43;102306.69;5070058;28;20040;-70
2021/09/03 08:31:21;;;;;;;14.70;7.32;;;;;;;21.76;60.45;102314.72;5071276;28;20032;-70
2021/09/03 08:33:47;;;;;;;16.48;7.60;;;;;;;21.74;60.17;102309.56;5070677;28;20056;-70
2021/09/03 08:36:12;;;;;;;10.90;6.93;;;;;;;21.73;59.63;102315.06;5071141;28;20067;-70
2021/09/03 08:38:38;;;;;;;14.52;8.32;;;;;;;21.72;59.80;102306.22;5071061;28;20033;-70
2021/09/03 08:41:03;;;;;;;15.55;7.38;;;;;;;21.71;59.80;102314.41;5085393;28;20055;-70
2021/09/03 08:43:29;;;;;;;13.80;6.47;;;;;;;21.70;59.11;102308.25;5090873;28;20036;-69
2021/09/03 08:45:55;;;;;;;15.13;7.55;;;;;;;21.70;59.09;102318.09;5089359;28;20036;-70
2021/09/03 08:48:23;;;;;;;11.70;7.22;;;;;;;21.69;59.15;102316.44;5091351;28;20039;-70
2021/09/03 08:50:51;;;;;;;14.15;7.30;;;;;;;21.68;59.13;102314.78;5090534;28;20036;-70
2021/09/03 08:53:18;;;;;;;12.18;6.43;;;;;;;21.68;58.57;102309.44;5091222;28;20424;-70
2021/09/03 08:55:46;;;;;;;12.10;6.75;;;;;;;21.67;58.52;102313.13;5090799;28;20151;-70
2021/09/03 08:58:12;;;;;;;13.52;6.85;;;;;;;21.67;58.03;102323.78;5090812;28;20032;-70
2021/09/03 09:00:37;;;;;;;11.77;7.00;;;;;;;21.64;57.82;102324.97;5073601;28;20042;-70
2021/09/03 09:03:06;;;;;;;11.07;7.32;;;;;;;21.63;57.44;102319.81;5090521;28;20040;-69
2021/09/03 09:05:43;;;;;;;14.52;7.85;;;;;;;21.59;57.59;102324.66;5090183;28;20031;-70
2021/09/03 09:08:09;;;;;;;11.77;7.32;;;;;;;21.61;57.69;102313.78;5090511;28;20032;-69
2021/09/03 09:10:36;;;;;;;11.20;6.72;;;;;;;21.61;57.22;102324.47;5090944;28;20036;-70
2021/09/03 09:13:19;;;;;;;14.10;7.00;;;;;;;21.57;56.76;102317.81;5089898;28;20032;-69
2021/09/03 09:15:58;;;;;;;10.52;6.90;;;;;;;21.57;56.68;102309.81;5072342;28;20421;-69
2021/09/03 09:18:54;;;;;;;11.93;7.32;;;;;;;21.55;56.52;102317.16;5090472;28;20494;-70
2021/09/03 09:21:30;;;;;;;11.40;6.70;;;;;;;21.56;56.54;102318.81;5090273;28;20036;-70
2021/09/03 09:24:14;;;;;;;9.65;6.78;;;;;;;21.54;56.31;102321.66;5075397;28;20032;-69
2021/09/03 09:26:58;;;;;;;10.40;6.90;;;;;;;21.53;56.38;102326.19;5089978;28;20036;-70
2021/09/03 09:29:36;;;;;;;10.20;7.10;;;;;;;21.55;56.26;102325.19;5072371;28;20047;-70
2021/09/03 09:32:07;;;;;;;11.80;7.25;;;;;;;21.55;56.38;102317.16;5089910;28;20167;-69
2021/09/03 09:34:39;;;;;;;12.68;6.47;;;;;;;21.55;56.03;102327.84;5090325;28;20032;-69
2021/09/03 09:37:07;;;;;;;9.43;6.57;;;;;;;21.56;55.89;102335.69;5089272;28;20032;-70
2021/09/03 09:39:42;;;;;;;9.98;6.88;;;;;;;21.53;55.93;102323.50;5089538;28;20502;-69
2021/09/03 09:42:28;;;;;;;10.02;6.75;;;;;;;21.53;55.59;102328.03;5089568;28;20055;-70
2021/09/03 09:45:08;;;;;;;9.35;6.60;;;;;;;21.52;55.77;102326.34;5090162;28;20024;-69
2021/09/03 09:47:35;;;;;;;11.80;6.97;;;;;;;21.55;55.79;102319.84;5089748;28;20028;-69
2021/09/03 09:50:22;;;;;;;11.23;6.60;;;;;;;21.50;55.87;102321.19;5089636;28;20108;-70
2021/09/03 09:52:48;;;;;;;12.23;7.05;;;;;;;21.53;55.85;102323.50;5075765;28;20031;-70
2021/09/03 09:55:13;;;;;;;9.95;6.70;;;;;;;21.55;55.79;102325.19;5090001;28;20024;-69
2021/09/03 09:57:43;;;;;;;10.35;6.32;;;;;;;21.54;55.60;102319.00;5089309;28;20074;-69
2021/09/03 10:00:09;;;;;;;10.20;6.18;;;;;;;21.54;55.67;102311.00;5089212;28;20098;-70
2021/09/03 10:02:37;;;;;;;12.63;7.00;;;;;;;21.54;55.59;102316.34;5089653;28;20063;-69
2021/09/03 10:05:04;;;;;;;11.80;6.10;;;;;;;21.55;55.61;102311.81;5089283;28;20028;-69
2021/09/03 10:07:31;;;;;;;10.68;6.10;;;;;;;21.55;55.55;102303.81;5089090;28;20059;-70
2021/09/03 10:09:57;;;;;;;14.65;7.07;;;;;;;21.53;55.67;102307.50;5088993;28;20028;-69
2021/09/03 10:12:22;;;;;;;11.95;6.45;;;;;;;21.53;55.38;102304.00;5070846;28;20059;-69
2021/09/03 10:14:49;;;;;;;8.70;6.28;;;;;;;21.54;55.58;102302.97;5089631;28;20032;-69
2021/09/03 10:17:15;;;;;;;10.52;6.13;;;;;;;21.55;55.59;102309.16;5088961;28;20024;-70
2021/09/03 10:19:42;;;;;;;11.10;6.72;;;;;;;21.55;55.34;102303.81;5089337;28;20036;-69
2021/09/03 10:22:10;;;;;;;12.90;6.32;;;;;;;21.55;55.45;102307.31;5088796;28;20039;-69
2021/09/03 10:24:36;;;;;;;13.88;6.93;;;;;;;21.55;55.58;102309.97;5089593;28;20055;-69
2021/09/03 10:27:04;;;;;;;11.25;6.00;;;;;;;21.55;55.10;102309.16;5088948;28;20106;-69
2021/09/03 10:29:39;;;;;;;10.10;6.18;;;;;;;21.54;55.20;102305.66;5089577;28;20055;-69
2021/09/03 10:32:07;;;;;;;14.30;7.20;;;;;;;21.53;55.04;102302.16;5088478;28;20099;-69
2021/09/03 10:34:55;;;;;;;11.35;6.10;;;;;;;21.49;55.48;102300.84;5089272;28;20070;-70
2021/09/03 10:37:29;;;;;;;11.07;6.28;;;;;;;21.52;54.94;102300.50;5088739;28;20455;-69
2021/09/03 10:39:56;;;;;;;9.98;5.93;;;;;;;21.52;55.30;102295.16;5089049;28;20051;-70
2021/09/03 10:42:34;;;;;;;7.97;5.68;;;;;;;21.50;54.85;102291.81;5070675;28;20029;-69
2021/09/03 10:45:03;;;;;;;11.27;6.65;;;;;;;21.52;55.13;102288.97;5089341;28;20032;-69
2021/09/03 10:47:42;;;;;;;10.48;6.25;;;;;;;21.52;54.96;102287.13;5088806;28;20464;-70
2021/09/03 10:50:15;;;;;;;12.77;7.18;;;;;;;21.51;54.70;102281.97;5072737;28;20043;-69
2021/09/03 10:53:06;;;;;;;10.18;6.45;;;;;;;21.48;54.77;102279.66;5088118;28;20513;-69
2021/09/03 10:55:58;;;;;;;8.77;6.10;;;;;;;21.48;54.77;102283.16;5089024;28;20039;-69
2021/09/03 10:58:48;;;;;;;10.93;6.22;;;;;;;21.49;54.84;102282.16;5089266;28;20481;-70
2021/09/03 11:01:14;;;;;;;11.57;6.05;;;;;;;21.52;54.91;102280.97;5088501;28;20035;-70
2021/09/03 11:03:52;;;;;;;11.05;6.85;;;;;;;21.48;55.02;102283.16;5089159;28;20028;-69
2021/09/03 11:06:32;;;;;;;10.27;5.95;;;;;;;21.49;54.99;102284.00;5088543;28;20024;-70
2021/09/03 11:09:16;;;;;;;12.27;6.68;;;;;;;21.51;54.52;102272.13;5088932;28;20036;-69
2021/09/03 11:11:42;;;;;;;;;;;;;;;21.43;54.86;102277.50;5088732;28;20039;-70
2021/09/03 11:14:18;;;;;;;9.38;6.00;;;;;;;21.48;54.98;102271.66;5089354;28;19916;-69